createdAt,value
2018-11-02T00:00:58.967Z,20.83
2018-11-02T00:03:26.964Z,20.20
2018-11-02T00:05:55.029Z,22.83
2018-11-02T00:08:23.159Z,23.43
2018-11-02T00:10:51.513Z,21.27
2018-11-02T00:13:19.603Z,24.07
2018-11-02T00:15:47.787Z,21.57
2018-11-02T00:18:15.931Z,21.73
2018-11-02T00:20:43.972Z,22.77
2018-11-02T00:23:12.003Z,23.70
2018-11-02T00:25:40.128Z,23.43
2018-11-02T00:28:08.340Z,23.80
2018-11-02T00:30:36.363Z,22.60
2018-11-02T00:33:04.382Z,22.87
2018-11-02T00:35:32.511Z,22.57
2018-11-02T00:38:00.578Z,23.13
2018-11-02T00:40:28.767Z,24.40
2018-11-02T00:42:56.923Z,23.77
2018-11-02T00:45:24.978Z,23.77
2018-11-02T00:47:53.055Z,23.43
2018-11-02T00:50:21.195Z,23.20
2018-11-02T00:52:49.483Z,24.47
2018-11-02T00:55:18.536Z,24.67
2018-11-02T00:57:46.581Z,25.70
2018-11-02T01:00:15.191Z,24.17
2018-11-02T01:02:44.250Z,25.23
2018-11-02T01:05:12.428Z,23.53
2018-11-02T01:07:40.545Z,25.10
2018-11-02T01:10:08.816Z,24.33
2018-11-02T01:12:38.798Z,23.23
2018-11-02T01:15:08.186Z,25.43
2018-11-02T01:17:36.373Z,25.17
2018-11-02T01:20:06.168Z,23.63
2018-11-02T01:22:34.284Z,25.23
2018-11-02T01:25:02.407Z,24.27
2018-11-02T01:27:30.517Z,22.00
2018-11-02T01:29:58.628Z,25.70
2018-11-02T01:32:26.660Z,22.93
2018-11-02T01:34:54.713Z,23.40
2018-11-02T01:37:22.763Z,23.40
2018-11-02T01:39:51.008Z,23.33
2018-11-02T01:42:20.165Z,23.03
2018-11-02T01:44:48.376Z,23.53
2018-11-02T01:47:16.664Z,22.80
2018-11-02T01:49:44.737Z,23.77
2018-11-02T01:52:12.926Z,21.83
2018-11-02T01:54:40.992Z,22.57
2018-11-02T01:57:09.053Z,21.80
2018-11-02T01:59:37.153Z,22.47
2018-11-02T02:02:05.180Z,22.23
2018-11-02T02:04:33.251Z,21.93
2018-11-02T02:07:01.451Z,23.13
2018-11-02T02:09:29.660Z,21.47
2018-11-02T02:11:57.796Z,22.47
2018-11-02T02:14:25.975Z,23.17
2018-11-02T02:16:54.016Z,21.80
2018-11-02T02:19:22.189Z,23.93
2018-11-02T02:21:50.384Z,21.70
2018-11-02T02:24:18.540Z,22.23
2018-11-02T02:26:46.621Z,23.33
2018-11-02T02:29:14.710Z,24.17
2018-11-02T02:31:42.776Z,24.17
2018-11-02T02:34:10.898Z,23.60
2018-11-02T02:36:38.933Z,20.13
2018-11-02T02:39:08.213Z,21.23
2018-11-02T02:41:36.298Z,22.47
2018-11-02T02:44:04.596Z,21.80
2018-11-02T02:46:32.817Z,21.10
2018-11-02T02:49:01.065Z,21.70
2018-11-02T02:51:29.315Z,21.37
2018-11-02T02:53:57.383Z,22.03
2018-11-02T02:56:25.386Z,23.03
2018-11-02T02:58:54.007Z,21.93
2018-11-02T03:01:22.253Z,21.33
2018-11-02T03:03:50.364Z,22.40
2018-11-02T03:06:18.553Z,22.57
2018-11-02T03:08:46.708Z,20.53
2018-11-02T03:11:15.010Z,20.30
2018-11-02T03:13:42.998Z,22.63
2018-11-02T03:16:11.167Z,21.87
2018-11-02T03:18:39.415Z,20.37
2018-11-02T03:21:07.541Z,21.17
2018-11-02T03:23:35.663Z,21.17
2018-11-02T03:26:03.806Z,20.63
2018-11-02T03:28:31.993Z,22.33
2018-11-02T03:31:00.485Z,21.47
2018-11-02T03:33:28.720Z,21.57
2018-11-02T03:35:56.867Z,20.97
2018-11-02T03:38:24.958Z,20.60
2018-11-02T03:40:53.179Z,21.93
2018-11-02T03:43:21.328Z,20.07
2018-11-02T03:45:49.559Z,19.23
2018-11-02T03:48:17.775Z,21.33
2018-11-02T03:50:45.984Z,19.97
2018-11-02T03:53:14.048Z,20.40
2018-11-02T03:55:43.213Z,20.97
2018-11-02T03:58:11.499Z,19.57
2018-11-02T04:00:40.788Z,19.03
2018-11-02T04:03:08.950Z,20.17
2018-11-02T04:05:37.205Z,19.50
2018-11-02T04:08:05.914Z,19.53
2018-11-02T04:10:33.999Z,18.80
2018-11-02T04:13:02.076Z,20.07
2018-11-02T04:15:30.186Z,18.40
2018-11-02T04:17:58.217Z,19.47
2018-11-02T04:20:26.318Z,21.23
2018-11-02T04:22:54.503Z,18.13
2018-11-02T04:25:22.573Z,19.03
2018-11-02T04:27:50.681Z,19.30
2018-11-02T04:30:18.865Z,19.47
2018-11-02T04:32:46.901Z,18.13
2018-11-02T04:35:15.135Z,19.50
2018-11-02T04:37:43.213Z,19.13
2018-11-02T04:40:11.361Z,18.57
2018-11-02T04:42:39.365Z,18.33
2018-11-02T04:45:07.574Z,18.00
2018-11-02T04:47:35.958Z,18.60
2018-11-02T04:50:04.632Z,18.30
2018-11-02T04:52:32.683Z,18.77
2018-11-02T04:55:00.888Z,18.33
2018-11-02T04:57:28.968Z,18.50
2018-11-02T04:59:56.995Z,18.20
2018-11-02T05:02:25.572Z,17.33
2018-11-02T05:04:53.640Z,18.07
2018-11-02T05:07:21.822Z,18.23
2018-11-02T05:09:49.970Z,16.73
2018-11-02T05:12:17.992Z,20.17
2018-11-02T05:14:46.198Z,18.80
2018-11-02T05:17:14.332Z,16.70
2018-11-02T05:19:42.434Z,18.07
2018-11-02T05:22:11.588Z,18.23
2018-11-02T05:24:39.654Z,17.60
2018-11-02T05:27:07.859Z,17.17
2018-11-02T05:29:36.031Z,18.27
2018-11-02T05:32:04.060Z,17.37
2018-11-02T05:34:32.231Z,16.53
2018-11-02T05:37:00.228Z,16.67
2018-11-02T05:39:28.400Z,18.57
2018-11-02T05:41:56.462Z,17.20
2018-11-02T05:44:24.513Z,18.03
2018-11-02T05:46:52.862Z,18.77
2018-11-02T05:49:21.068Z,17.33
2018-11-02T05:51:49.159Z,16.57
2018-11-02T05:54:17.190Z,18.57
2018-11-02T05:56:45.378Z,19.33
2018-11-02T05:59:13.630Z,16.40
2018-11-02T06:01:42.303Z,16.90
2018-11-02T06:04:10.397Z,17.47
2018-11-02T06:06:38.501Z,17.07
2018-11-02T06:09:07.640Z,18.60
2018-11-02T06:11:35.967Z,19.27
2018-11-02T06:14:04.058Z,20.07
2018-11-02T06:16:32.274Z,19.07
2018-11-02T06:19:00.444Z,17.93
2018-11-02T06:21:28.709Z,18.47
2018-11-02T06:23:56.785Z,17.90
2018-11-02T06:26:24.996Z,17.23
2018-11-02T06:28:53.439Z,17.23
2018-11-02T06:31:21.567Z,18.37
2018-11-02T06:33:49.704Z,18.73
2018-11-02T06:36:18.001Z,18.93
2018-11-02T06:38:46.310Z,18.83
2018-11-02T06:41:14.382Z,18.43
2018-11-02T06:43:42.719Z,19.17
2018-11-02T06:46:10.845Z,18.93
2018-11-02T06:48:39.207Z,19.53
2018-11-02T06:51:07.348Z,19.17
2018-11-02T06:53:35.483Z,18.97
2018-11-02T06:56:04.607Z,19.30
2018-11-02T06:58:32.806Z,19.60
2018-11-02T07:01:00.940Z,20.33
2018-11-02T07:03:29.224Z,20.30
2018-11-02T07:05:57.708Z,21.77
2018-11-02T07:08:26.092Z,19.20
2018-11-02T07:10:54.153Z,20.17
2018-11-02T07:13:22.407Z,21.53
2018-11-02T07:15:50.675Z,19.47
2018-11-02T07:18:18.894Z,22.57
2018-11-02T07:20:48.291Z,21.17
2018-11-02T07:23:16.647Z,21.30
2018-11-02T07:25:44.807Z,20.13
2018-11-02T07:28:12.956Z,20.30
2018-11-02T07:30:41.226Z,22.10
2018-11-02T07:33:10.280Z,20.73
2018-11-02T07:35:38.345Z,19.23
2018-11-02T07:38:06.440Z,20.33
2018-11-02T07:40:34.657Z,22.03
2018-11-02T07:43:02.787Z,20.00
2018-11-02T07:45:31.165Z,23.30
2018-11-02T07:47:59.425Z,20.07
2018-11-02T07:50:28.248Z,19.93
2018-11-02T07:52:56.557Z,20.03
2018-11-02T07:55:24.796Z,17.00
2018-11-02T07:57:53.280Z,19.30
2018-11-02T08:00:21.466Z,19.50
2018-11-02T08:02:49.544Z,18.57
2018-11-02T08:05:17.743Z,19.20
2018-11-02T08:07:46.049Z,18.70
2018-11-02T08:10:14.250Z,18.53
2018-11-02T08:12:42.425Z,18.33
2018-11-02T08:15:11.563Z,18.83
2018-11-02T08:17:40.463Z,18.70
2018-11-02T08:20:09.844Z,18.97
2018-11-02T08:22:37.890Z,18.53
2018-11-02T08:25:07.805Z,20.13
2018-11-02T08:27:35.810Z,20.93
2018-11-02T08:30:04.092Z,18.57
2018-11-02T08:32:33.238Z,21.27
2018-11-02T08:35:01.785Z,18.77
2018-11-02T08:37:29.883Z,20.57
2018-11-02T08:39:58.015Z,18.97
2018-11-02T08:42:26.092Z,20.03
2018-11-02T08:44:54.095Z,17.70
2018-11-02T08:47:22.401Z,19.23
2018-11-02T08:49:50.495Z,18.93
2018-11-02T08:52:18.601Z,18.77
2018-11-02T08:54:46.873Z,19.43
2018-11-02T08:57:14.887Z,19.30
2018-11-02T08:59:43.108Z,21.27
2018-11-02T09:02:11.240Z,20.17
2018-11-02T09:04:39.380Z,19.13
2018-11-02T09:07:07.634Z,18.50
2018-11-02T09:09:35.780Z,20.27
2018-11-02T09:12:03.892Z,21.03
2018-11-02T09:14:32.141Z,35.97
2018-11-02T09:17:00.213Z,20.37
2018-11-02T09:19:28.383Z,20.30
2018-11-02T09:21:56.784Z,21.43
2018-11-02T09:24:25.344Z,21.90
2018-11-02T09:26:53.752Z,22.20
2018-11-02T09:29:21.932Z,21.00
2018-11-02T09:31:50.131Z,21.80
2018-11-02T09:34:18.363Z,21.63
2018-11-02T09:36:46.478Z,22.20
2018-11-02T09:39:17.123Z,20.33
2018-11-02T09:41:46.001Z,21.37
2018-11-02T09:44:19.399Z,22.13
2018-11-02T09:46:48.497Z,21.30
2018-11-02T09:49:17.161Z,22.53
2018-11-02T09:51:47.817Z,22.47
2018-11-02T09:54:16.323Z,23.77
2018-11-02T09:56:44.635Z,23.50
2018-11-02T09:59:13.046Z,22.33
2018-11-02T10:01:41.445Z,23.90
2018-11-02T10:04:09.793Z,20.87
2018-11-02T10:06:38.690Z,22.47
2018-11-02T10:09:09.573Z,23.10
2018-11-02T10:11:37.834Z,22.93
2018-11-02T10:14:09.910Z,21.63
2018-11-02T10:16:45.163Z,22.77
2018-11-02T10:19:13.527Z,24.97
2018-11-02T10:21:41.931Z,25.87
2018-11-02T10:24:14.766Z,22.40
2018-11-02T10:26:42.953Z,24.57
2018-11-02T10:29:11.201Z,23.10
2018-11-02T10:31:39.471Z,23.70
2018-11-02T10:34:08.175Z,22.13
2018-11-02T10:36:37.594Z,24.30
2018-11-02T10:39:08.529Z,23.40
2018-11-02T10:41:43.456Z,23.20
2018-11-02T10:44:14.181Z,23.87
2018-11-02T10:46:43.303Z,24.83
2018-11-02T10:49:11.486Z,25.73
2018-11-02T10:51:39.657Z,25.47
2018-11-02T10:54:08.243Z,24.87
2018-11-02T10:56:41.788Z,24.50
2018-11-02T10:59:10.364Z,22.43
2018-11-02T11:01:44.092Z,23.90
2018-11-02T11:04:12.718Z,24.90
2018-11-02T11:06:41.142Z,24.63
2018-11-02T11:09:11.166Z,25.60
2018-11-02T11:11:40.062Z,23.37
2018-11-02T11:14:10.044Z,24.47
2018-11-02T11:16:38.842Z,22.97
2018-11-02T11:19:08.398Z,25.20
2018-11-02T11:21:37.376Z,23.63
2018-11-02T11:24:05.748Z,22.87
2018-11-02T11:26:33.917Z,23.20
2018-11-02T11:29:02.414Z,22.63
2018-11-02T11:31:30.649Z,22.90
2018-11-02T11:34:00.139Z,21.93
2018-11-02T11:36:28.364Z,23.47
2018-11-02T11:38:57.254Z,21.30
2018-11-02T11:41:25.604Z,20.50
2018-11-02T11:43:53.857Z,19.93
2018-11-02T11:46:21.935Z,20.97
2018-11-02T11:48:50.130Z,21.43
2018-11-02T11:51:18.356Z,20.97
2018-11-02T11:53:46.501Z,19.03
2018-11-02T11:56:14.631Z,18.30
2018-11-02T11:58:42.808Z,19.17
2018-11-02T12:01:12.069Z,19.37
2018-11-02T12:03:40.161Z,16.83
2018-11-02T12:06:08.749Z,17.17
2018-11-02T12:08:36.976Z,19.20
2018-11-02T12:11:05.534Z,17.37
2018-11-02T12:13:33.813Z,19.17
2018-11-02T12:16:02.161Z,18.70
2018-11-02T12:18:31.461Z,19.47
2018-11-02T12:20:59.690Z,17.70
2018-11-02T12:23:28.699Z,18.73
2018-11-02T12:25:57.190Z,17.90
2018-11-02T12:28:25.515Z,18.37
2018-11-02T12:30:53.672Z,18.83
2018-11-02T12:33:23.009Z,19.90
2018-11-02T12:35:51.147Z,20.63
2018-11-02T12:38:19.267Z,16.87
2018-11-02T12:40:47.447Z,19.00
2018-11-02T12:43:16.037Z,18.67
2018-11-02T12:45:44.111Z,18.30
2018-11-02T12:48:12.834Z,18.60
2018-11-02T12:50:41.163Z,18.73
2018-11-02T12:53:09.406Z,18.23
2018-11-02T12:55:37.541Z,18.83
2018-11-02T12:58:06.699Z,16.90
2018-11-02T13:00:34.996Z,18.23
2018-11-02T13:03:03.302Z,19.10
2018-11-02T13:05:31.475Z,18.07
2018-11-02T13:07:59.583Z,17.30
2018-11-02T13:10:27.776Z,17.50
2018-11-02T13:12:56.296Z,17.70
2018-11-02T13:15:24.817Z,17.60
2018-11-02T13:18:08.493Z,18.60
2018-11-02T13:20:37.017Z,17.80
2018-11-02T13:23:05.275Z,17.90
2018-11-02T13:25:33.476Z,16.50
2018-11-02T13:28:01.751Z,15.90
2018-11-02T13:30:30.301Z,17.03
2018-11-02T13:32:58.665Z,16.53
2018-11-02T13:35:27.945Z,15.87
2018-11-02T13:37:56.948Z,14.87
2018-11-02T13:40:25.045Z,17.30
2018-11-02T13:42:53.462Z,15.07
2018-11-02T13:45:21.956Z,14.97
2018-11-02T13:47:50.063Z,15.20
2018-11-02T13:50:18.405Z,15.40
2018-11-02T13:52:46.644Z,15.67
2018-11-02T13:55:15.063Z,16.40
2018-11-02T13:57:43.339Z,15.10
2018-11-02T14:00:13.136Z,15.50
2018-11-02T14:02:41.387Z,15.43
2018-11-02T14:05:11.330Z,15.50
2018-11-02T14:07:40.499Z,14.17
2018-11-02T14:10:10.090Z,15.77
2018-11-02T14:12:39.196Z,15.10
2018-11-02T14:15:09.615Z,15.33
2018-11-02T14:17:38.122Z,14.77
2018-11-02T14:20:07.716Z,14.43
2018-11-02T14:22:36.326Z,16.07
2018-11-02T14:25:05.816Z,16.17
2018-11-02T14:27:34.126Z,15.40
2018-11-02T14:30:02.511Z,14.57
2018-11-02T14:32:30.715Z,14.80
2018-11-02T14:34:58.784Z,15.17
2018-11-02T14:37:27.171Z,15.60
2018-11-02T14:39:55.915Z,16.13
2018-11-02T14:42:25.267Z,15.83
2018-11-02T14:44:54.229Z,14.83
2018-11-02T14:47:23.285Z,14.60
2018-11-02T14:49:51.748Z,15.37
2018-11-02T14:52:20.170Z,16.10
2018-11-02T14:54:48.959Z,14.57
2018-11-02T14:57:17.184Z,15.20
2018-11-02T14:59:45.518Z,15.40
2018-11-02T15:02:13.679Z,16.57
2018-11-02T15:04:42.267Z,16.40
2018-11-02T15:07:10.495Z,16.20
2018-11-02T15:09:39.101Z,15.20
2018-11-02T15:12:07.441Z,15.97
2018-11-02T15:14:35.574Z,16.97
2018-11-02T15:17:03.909Z,17.27
2018-11-02T15:19:32.424Z,14.80
2018-11-02T15:22:00.803Z,16.80
2018-11-02T15:24:28.903Z,16.63
2018-11-02T15:26:57.300Z,16.13
2018-11-02T15:29:25.427Z,17.67
2018-11-02T15:31:53.783Z,17.60
2018-11-02T15:34:21.987Z,16.87
2018-11-02T15:36:50.438Z,16.37
2018-11-02T15:39:19.310Z,16.23
2018-11-02T15:41:47.455Z,17.40
2018-11-02T15:44:15.669Z,17.03
2018-11-02T15:46:43.768Z,17.10
2018-11-02T15:49:12.225Z,17.23
2018-11-02T15:51:40.450Z,17.70
2018-11-02T15:54:08.654Z,15.93
2018-11-02T15:56:37.063Z,15.93
2018-11-02T15:59:05.340Z,16.20
2018-11-02T16:01:33.483Z,16.70
2018-11-02T16:04:01.553Z,16.33
2018-11-02T16:06:29.999Z,16.33
2018-11-02T16:08:58.147Z,18.17
2018-11-02T16:11:26.415Z,16.77
2018-11-02T16:13:54.559Z,16.73
2018-11-02T16:16:22.634Z,16.00
2018-11-02T16:18:50.981Z,18.43
2018-11-02T16:21:19.239Z,16.53
2018-11-02T16:23:47.521Z,16.90
2018-11-02T16:26:15.830Z,17.60
2018-11-02T16:28:44.576Z,17.20
2018-11-02T16:31:13.010Z,18.67
2018-11-02T16:33:41.592Z,15.63
2018-11-02T16:36:09.915Z,16.47
2018-11-02T16:38:38.168Z,17.47
2018-11-02T16:41:06.410Z,17.23
2018-11-02T16:43:34.532Z,16.63
2018-11-02T16:46:02.886Z,15.80
2018-11-02T16:48:31.221Z,15.13
2018-11-02T16:50:59.575Z,16.57
2018-11-02T16:53:27.805Z,14.60
2018-11-02T16:55:55.958Z,14.70
2018-11-02T16:58:24.569Z,13.10
2018-11-02T17:00:52.863Z,15.70
2018-11-02T17:03:21.349Z,13.97
2018-11-02T17:05:49.730Z,13.20
2018-11-02T17:08:18.153Z,13.83
2018-11-02T17:10:46.380Z,13.47
2018-11-02T17:13:14.746Z,13.60
2018-11-02T17:15:42.884Z,12.23
2018-11-02T17:18:11.072Z,13.13
2018-11-02T17:20:39.713Z,12.80
2018-11-02T17:23:08.045Z,11.10
2018-11-02T17:25:36.182Z,11.77
2018-11-02T17:28:04.636Z,10.90
2018-11-02T17:30:34.653Z,10.83
2018-11-02T17:33:03.335Z,9.90
2018-11-02T17:35:31.956Z,10.73
2018-11-02T17:38:00.399Z,11.57
2018-11-02T17:40:28.917Z,11.63
2018-11-02T17:42:58.083Z,9.77
2018-11-02T17:45:26.788Z,11.50
2018-11-02T17:47:55.503Z,10.90
2018-11-02T17:50:24.356Z,10.77
2018-11-02T17:52:52.576Z,10.97
2018-11-02T17:55:21.133Z,10.40
2018-11-02T17:57:49.343Z,10.53
2018-11-02T18:00:17.403Z,9.43
2018-11-02T18:02:45.589Z,10.40
2018-11-02T18:05:13.986Z,10.90
2018-11-02T18:07:43.238Z,10.33
2018-11-02T18:10:12.618Z,9.43
2018-11-02T18:12:40.832Z,10.33
2018-11-02T18:15:10.877Z,10.57
2018-11-02T18:17:38.940Z,9.13
2018-11-02T18:20:11.738Z,9.53
2018-11-02T18:22:39.970Z,9.73
2018-11-02T18:25:09.468Z,9.83
2018-11-02T18:27:38.338Z,10.13
2018-11-02T18:30:07.840Z,15.23
2018-11-02T18:32:36.143Z,11.17
2018-11-02T18:35:05.072Z,12.17
2018-11-02T18:37:34.067Z,9.33
2018-11-02T18:40:02.611Z,8.40
2018-11-02T18:42:31.049Z,10.00
2018-11-02T18:44:59.840Z,8.37
2018-11-02T18:47:33.452Z,8.97
2018-11-02T18:50:01.628Z,9.27
2018-11-02T18:52:30.343Z,9.27
2018-11-02T18:54:59.695Z,10.10
2018-11-02T18:57:28.583Z,9.60
2018-11-02T18:59:56.688Z,8.90
2018-11-02T19:02:24.880Z,9.00
2018-11-02T19:04:53.098Z,9.10
2018-11-02T19:07:21.179Z,9.07
2018-11-02T19:09:49.500Z,9.17
2018-11-02T19:12:18.218Z,8.97
2018-11-02T19:14:46.487Z,9.53
2018-11-02T19:17:14.714Z,9.70
2018-11-02T19:19:43.543Z,9.30
2018-11-02T19:22:11.654Z,9.67
2018-11-02T19:24:39.673Z,9.37
2018-11-02T19:29:45.035Z,9.10
2018-11-02T19:32:13.267Z,9.10
2018-11-02T19:34:41.801Z,9.43
2018-11-02T19:37:09.907Z,9.30
2018-11-02T19:39:38.417Z,9.00
2018-11-02T19:42:07.870Z,9.43
2018-11-02T19:44:36.108Z,9.00
2018-11-02T19:47:04.211Z,9.97
2018-11-02T19:49:33.076Z,8.53
2018-11-02T19:52:01.327Z,8.73
2018-11-02T19:54:29.504Z,8.97
2018-11-02T19:56:58.639Z,8.23
2018-11-02T19:59:27.504Z,8.63
2018-11-02T20:01:55.772Z,8.27
2018-11-02T20:04:24.971Z,9.23
2018-11-02T20:06:53.193Z,9.37
2018-11-02T20:09:21.317Z,9.70
2018-11-02T20:11:49.472Z,9.23
2018-11-02T20:14:18.176Z,9.23
2018-11-02T20:16:46.314Z,9.53
2018-11-02T20:19:14.696Z,9.47
2018-11-02T20:21:42.772Z,10.17
2018-11-02T20:24:12.000Z,10.80
2018-11-02T20:26:40.841Z,9.67
2018-11-02T20:29:09.028Z,9.97
2018-11-02T20:31:36.993Z,9.30
2018-11-02T20:34:05.555Z,12.87
2018-11-02T20:36:34.067Z,10.50
2018-11-02T20:39:02.536Z,9.57
2018-11-02T20:41:30.775Z,9.60
2018-11-02T20:43:59.063Z,10.67
2018-11-02T20:46:28.239Z,10.00
2018-11-02T20:48:56.986Z,10.23
2018-11-02T20:51:25.026Z,9.53
2018-11-02T20:53:53.280Z,11.03
2018-11-02T20:56:21.424Z,9.90
2018-11-02T20:58:49.737Z,9.67
2018-11-02T21:01:18.742Z,9.90
2018-11-02T21:03:46.900Z,9.20
2018-11-02T21:06:16.026Z,9.23
2018-11-02T21:08:44.987Z,9.80
2018-11-02T21:11:13.103Z,10.13
2018-11-02T21:13:41.264Z,9.77
2018-11-02T21:16:09.490Z,10.77
2018-11-02T21:18:37.510Z,10.23
2018-11-02T21:21:05.898Z,9.60
2018-11-02T21:23:34.045Z,10.00
2018-11-02T21:26:02.393Z,9.47
2018-11-02T21:28:30.527Z,9.17
2018-11-02T21:30:58.731Z,10.93
2018-11-02T21:33:26.903Z,9.13
2018-11-02T21:35:55.010Z,10.07
2018-11-02T21:38:23.221Z,9.50
2018-11-02T21:40:51.368Z,7.90
2018-11-02T21:43:20.389Z,8.93
2018-11-02T21:45:48.560Z,9.10
2018-11-02T21:48:16.687Z,8.43
2018-11-02T21:50:44.722Z,8.23
2018-11-02T21:53:13.553Z,9.00
2018-11-02T21:55:41.659Z,9.23
2018-11-02T21:58:09.828Z,8.53
2018-11-02T22:00:38.219Z,8.50
2018-11-02T22:03:07.279Z,8.33
2018-11-02T22:05:35.583Z,7.77
2018-11-02T22:08:03.639Z,7.97
2018-11-02T22:10:31.783Z,7.63
2018-11-02T22:13:00.107Z,7.90
2018-11-02T22:15:28.272Z,8.80
2018-11-02T22:17:56.263Z,8.27
2018-11-02T22:20:24.895Z,8.20
2018-11-02T22:22:53.300Z,7.43
2018-11-02T22:25:21.481Z,8.43
2018-11-02T22:27:49.701Z,7.33
2018-11-02T22:30:17.943Z,8.63
2018-11-02T22:32:46.079Z,7.10
2018-11-02T22:35:14.879Z,7.77
2018-11-02T22:37:43.071Z,6.67
2018-11-02T22:40:12.165Z,6.90
2018-11-02T22:42:40.905Z,6.70
2018-11-02T22:45:10.498Z,7.37
2018-11-02T22:47:38.544Z,7.50
2018-11-02T22:50:07.294Z,6.87
2018-11-02T22:52:35.488Z,7.20
2018-11-02T22:55:03.681Z,6.70
2018-11-02T22:57:31.921Z,6.80
2018-11-02T23:00:00.358Z,5.70
2018-11-02T23:02:29.097Z,5.80
2018-11-02T23:04:57.368Z,6.50
2018-11-02T23:07:25.426Z,6.70
2018-11-02T23:09:53.552Z,5.97
2018-11-02T23:12:21.898Z,5.97
2018-11-02T23:14:50.100Z,6.10
2018-11-02T23:17:18.656Z,6.53
2018-11-02T23:19:46.590Z,6.13
2018-11-02T23:22:14.970Z,6.07
2018-11-02T23:24:43.917Z,6.57
2018-11-02T23:27:12.299Z,6.00
2018-11-02T23:29:40.666Z,6.10
2018-11-02T23:32:09.435Z,5.37
2018-11-02T23:34:37.612Z,5.77
2018-11-02T23:37:06.536Z,5.37
2018-11-02T23:39:34.559Z,5.77
2018-11-02T23:42:02.637Z,6.73
2018-11-02T23:44:31.575Z,5.30
2018-11-02T23:47:00.349Z,5.70
2018-11-02T23:49:28.614Z,6.07
2018-11-02T23:51:56.864Z,5.70
2018-11-02T23:54:24.889Z,6.43
2018-11-02T23:56:53.184Z,7.13
2018-11-02T23:59:21.631Z,5.07
